Time;durP1;ratioP1;P1;durP2;ratioP2;P2;SDS_P1;SDS_P2;PMS_P1;PMS_P2;Temp;Humidity;BMP_temperature;BMP_pressure;BME280_temperature;BME280_humidity;BME280_pressure;Samples;Min_cycle;Max_cycle;Signal;HPM_P1;HPM_P2
2022/12/19 00:00:36;;;;;;;0.60;0.57;;;-0.60;99.90;;;;;;5055048;28;20447;-78
2022/12/19 00:03:03;;;;;;;0.40;0.40;;;-0.60;99.90;;;;;;5054631;28;21051;-78
2022/12/19 00:05:30;;;;;;;2.60;1.13;;;-0.50;99.90;;;;;;5054598;28;20435;-78
2022/12/19 00:07:57;;;;;;;0.30;0.30;;;-0.40;99.90;;;;;;5055022;28;20458;-78
2022/12/19 00:10:23;;;;;;;0.37;0.37;;;-0.40;99.90;;;;;;5054867;28;20856;-78
2022/12/19 00:12:50;;;;;;;2.07;1.90;;;-0.40;99.90;;;;;;5054445;28;20982;-78
2022/12/19 00:15:17;;;;;;;0.67;0.67;;;-0.40;99.90;;;;;;5054428;28;20946;-78
2022/12/19 00:17:45;;;;;;;0.30;0.27;;;-0.40;99.90;;;;;;5054719;28;20504;-78
2022/12/19 00:20:12;;;;;;;0.40;0.40;;;-0.40;99.90;;;;;;5054641;28;20438;-78
2022/12/19 00:22:39;;;;;;;0.47;0.47;;;-0.30;99.90;;;;;;5054301;28;20457;-78
2022/12/19 00:25:06;;;;;;;0.50;0.50;;;-0.30;99.90;;;;;;5054630;28;20435;-78
2022/12/19 00:27:34;;;;;;;0.63;0.63;;;-0.30;99.90;;;;;;5054162;28;21004;-78
2022/12/19 00:30:01;;;;;;;2.27;2.03;;;-0.20;99.90;;;;;;5054441;28;20457;-78
2022/12/19 00:32:27;;;;;;;2.00;1.90;;;-0.20;99.90;;;;;;5054351;28;20450;-78
2022/12/19 00:34:56;;;;;;;0.67;0.63;;;-0.20;99.90;;;;;;5054432;28;20443;-78
2022/12/19 00:37:22;;;;;;;1.03;0.93;;;-0.30;99.90;;;;;;5054356;28;20420;-78
2022/12/19 00:39:49;;;;;;;1.17;0.60;;;-0.20;99.90;;;;;;5054271;28;20454;-78
2022/12/19 00:42:16;;;;;;;0.60;0.60;;;-0.20;99.90;;;;;;5054237;28;20477;-77
2022/12/19 00:44:43;;;;;;;2.30;1.17;;;-0.10;99.90;;;;;;5054244;28;20488;-78
2022/12/19 00:47:10;;;;;;;0.40;0.40;;;-0.10;99.90;;;;;;5054085;28;20568;-78
2022/12/19 00:49:36;;;;;;;0.30;0.30;;;-0.10;99.90;;;;;;5053991;28;20437;-77
2022/12/19 00:52:05;;;;;;;0.30;0.30;;;-0.10;99.90;;;;;;5054088;28;20455;-78
2022/12/19 00:54:31;;;;;;;0.30;0.27;;;0.00;99.90;;;;;;5053955;28;21031;-78
2022/12/19 00:56:58;;;;;;;0.30;0.30;;;0.00;99.90;;;;;;5054011;28;20881;-78
2022/12/19 00:59:25;;;;;;;0.40;0.40;;;-0.10;99.90;;;;;;5053645;28;20949;-78
2022/12/19 01:01:52;;;;;;;1.07;0.50;;;0.00;99.90;;;;;;5053100;28;20461;-78
2022/12/19 01:04:18;;;;;;;0.43;0.40;;;0.00;99.90;;;;;;5053244;28;20498;-78
2022/12/19 01:06:45;;;;;;;0.30;0.30;;;0.00;99.90;;;;;;5053419;28;20853;-78
2022/12/19 01:09:14;;;;;;;0.40;0.40;;;0.00;99.90;;;;;;5053775;28;20451;-78
2022/12/19 01:14:25;;;;;;;1.40;1.30;;;0.20;99.90;;;;;;5053770;28;20914;-78
2022/12/19 01:16:52;;;;;;;1.27;0.83;;;0.20;99.90;;;;;;5053628;28;20447;-78
2022/12/19 01:19:19;;;;;;;0.50;0.50;;;0.20;99.90;;;;;;5053588;28;20447;-78
2022/12/19 01:21:47;;;;;;;0.50;0.50;;;0.20;99.90;;;;;;5053591;28;20468;-78
2022/12/19 01:24:15;;;;;;;1.17;0.83;;;0.30;99.90;;;;;;5052809;28;20490;-78
2022/12/19 01:26:41;;;;;;;0.30;0.30;;;0.30;99.90;;;;;;5053410;28;20561;-78
2022/12/19 01:29:08;;;;;;;0.57;0.47;;;0.20;99.90;;;;;;5053478;28;20903;-78
2022/12/19 01:31:35;;;;;;;0.97;0.93;;;0.20;99.90;;;;;;5053124;28;20942;-78
2022/12/19 01:34:02;;;;;;;1.63;0.90;;;0.30;99.90;;;;;;5053351;28;20437;-78
2022/12/19 01:36:29;;;;;;;0.93;0.93;;;0.30;99.90;;;;;;5053342;28;20815;-78
2022/12/19 01:38:56;;;;;;;0.30;0.30;;;0.40;99.90;;;;;;5053356;28;20449;-78
2022/12/19 01:41:24;;;;;;;0.80;0.70;;;0.40;99.90;;;;;;5053126;28;20457;-78
2022/12/19 01:43:56;;;;;;;0.30;0.20;;;0.40;99.90;;;;;;5053246;28;20470;-78
2022/12/19 01:46:27;;;;;;;0.30;0.20;;;0.40;99.90;;;;;;5052860;28;20490;-78
2022/12/19 01:48:54;;;;;;;0.30;0.30;;;0.40;99.90;;;;;;5053000;28;20903;-78
2022/12/19 01:51:24;;;;;;;0.33;0.33;;;0.40;99.90;;;;;;5052892;28;20941;-78
2022/12/19 01:53:53;;;;;;;0.30;0.30;;;0.40;99.90;;;;;;5053169;28;20471;-78
2022/12/19 01:56:24;;;;;;;1.80;1.70;;;0.50;99.90;;;;;;5053168;28;20442;-78
2022/12/19 01:58:54;;;;;;;0.90;0.90;;;0.50;99.90;;;;;;5052901;28;20435;-78
2022/12/19 02:01:20;;;;;;;0.90;0.57;;;0.60;99.90;;;;;;5052812;28;20461;-78
2022/12/19 02:03:48;;;;;;;0.30;0.30;;;0.60;99.90;;;;;;5052918;28;20454;-78
2022/12/19 02:06:15;;;;;;;3.80;1.03;;;0.60;99.90;;;;;;5053258;28;20484;-78
2022/12/19 02:08:43;;;;;;;0.50;0.40;;;0.70;99.90;;;;;;5053068;28;20455;-78
2022/12/19 02:11:10;;;;;;;0.30;0.30;;;0.70;99.90;;;;;;5053036;28;20457;-78
2022/12/19 02:13:38;;;;;;;0.60;0.60;;;0.70;99.90;;;;;;5053630;28;20484;-78
2022/12/19 02:16:16;;;;;;;0.40;0.40;;;0.70;99.90;;;;;;5057002;28;20450;-78
2022/12/19 02:18:51;;;;;;;1.07;0.80;;;0.60;99.90;;;;;;5056697;28;20902;-78
2022/12/19 02:21:44;;;;;;;3.07;2.77;;;0.50;99.90;;;;;;5056672;28;20971;-78
2022/12/19 02:24:41;;;;;;;2.23;2.13;;;0.50;99.90;;;;;;5056470;28;20482;-78
2022/12/19 02:27:25;;;;;;;0.30;0.20;;;0.50;99.90;;;;;;5056727;28;20981;-78
2022/12/19 02:30:13;;;;;;;0.30;0.30;;;0.70;99.90;;;;;;5056809;28;20441;-78
2022/12/19 02:32:54;;;;;;;0.33;0.33;;;0.70;99.90;;;;;;5056981;28;20437;-78
2022/12/19 02:35:33;;;;;;;2.50;2.30;;;0.70;99.90;;;;;;5056676;28;20442;-78
2022/12/19 02:38:10;;;;;;;0.30;0.30;;;0.60;99.90;;;;;;5056687;28;20431;-78
2022/12/19 02:40:41;;;;;;;2.33;1.13;;;0.70;99.90;;;;;;5056307;28;20491;-78
2022/12/19 02:43:10;;;;;;;0.40;0.40;;;0.70;99.90;;;;;;5056216;28;20981;-78
2022/12/19 02:45:39;;;;;;;0.63;0.63;;;0.70;99.90;;;;;;5056494;28;20495;-78
2022/12/19 02:48:08;;;;;;;0.40;0.40;;;0.80;99.90;;;;;;5056381;28;20482;-78
2022/12/19 02:50:39;;;;;;;0.37;0.33;;;0.70;99.90;;;;;;5056370;28;20454;-78
2022/12/19 02:53:09;;;;;;;0.60;0.43;;;0.70;99.90;;;;;;5056283;28;20466;-78
2022/12/19 02:55:43;;;;;;;1.70;1.60;;;0.70;99.90;;;;;;5056304;28;20450;-78
2022/12/19 02:58:40;;;;;;;1.50;1.50;;;0.60;99.90;;;;;;5056303;28;20431;-78
2022/12/19 03:01:17;;;;;;;0.30;0.30;;;0.70;99.90;;;;;;5050799;28;20808;-78
2022/12/19 03:03:57;;;;;;;3.07;0.87;;;0.70;99.90;;;;;;5056127;28;20470;-78
2022/12/19 03:06:30;;;;;;;0.93;0.83;;;0.60;99.90;;;;;;5055734;28;20435;-78
2022/12/19 03:09:02;;;;;;;0.90;0.90;;;0.60;99.90;;;;;;5055795;28;20914;-78
2022/12/19 03:11:34;;;;;;;0.60;0.60;;;0.60;99.90;;;;;;5055731;28;20445;-78
2022/12/19 03:14:05;;;;;;;0.40;0.40;;;0.70;99.90;;;;;;5055919;28;20809;-78
2022/12/19 03:16:35;;;;;;;3.30;0.77;;;0.70;99.90;;;;;;5055962;28;20438;-78
2022/12/19 03:19:04;;;;;;;0.67;0.67;;;0.70;99.90;;;;;;5055548;28;20450;-78
2022/12/19 03:21:36;;;;;;;1.43;1.27;;;0.70;99.90;;;;;;5055766;28;20466;-78
2022/12/19 03:24:04;;;;;;;0.50;0.50;;;0.70;99.90;;;;;;5055545;28;20481;-78
2022/12/19 03:26:35;;;;;;;0.37;0.37;;;0.70;99.90;;;;;;5054683;28;20454;-78
2022/12/19 03:29:07;;;;;;;0.60;0.60;;;0.70;99.90;;;;;;5055358;28;20972;-78
2022/12/19 03:31:36;;;;;;;5.47;1.07;;;0.70;99.90;;;;;;5055638;28;20439;-78
2022/12/19 03:34:10;;;;;;;0.30;0.30;;;0.70;99.90;;;;;;5055440;28;21092;-78
2022/12/19 03:36:40;;;;;;;0.30;0.30;;;0.70;99.90;;;;;;5055861;28;20427;-78
2022/12/19 03:39:09;;;;;;;0.87;0.87;;;0.70;99.90;;;;;;5055541;28;20439;-78
2022/12/19 03:44:28;;;;;;;1.87;0.70;;;0.80;99.90;;;;;;5037496;28;20450;-78
2022/12/19 03:46:59;;;;;;;2.77;1.33;;;0.80;99.90;;;;;;5055314;28;20466;-78
2022/12/19 03:49:28;;;;;;;0.53;0.53;;;0.80;99.90;;;;;;5055344;28;20438;-78
2022/12/19 03:51:59;;;;;;;0.83;0.80;;;0.80;99.90;;;;;;5055191;28;20450;-78
2022/12/19 03:54:30;;;;;;;0.57;0.57;;;0.90;99.90;;;;;;5055160;28;20467;-78
2022/12/19 03:57:01;;;;;;;0.37;0.30;;;0.90;99.90;;;;;;5054893;28;20434;-78
2022/12/19 03:59:34;;;;;;;0.40;0.30;;;1.00;99.90;;;;;;5054823;28;20431;-78
2022/12/19 04:02:02;;;;;;;4.40;1.57;;;1.00;99.90;;;;;;5054945;28;20911;-78
2022/12/19 04:04:34;;;;;;;0.37;0.37;;;1.00;99.90;;;;;;5054956;28;20856;-78
2022/12/19 04:07:02;;;;;;;2.40;1.17;;;1.00;99.90;;;;;;5054953;28;20473;-78
2022/12/19 04:09:31;;;;;;;0.80;0.80;;;1.00;99.90;;;;;;5055154;28;20446;-78
2022/12/19 04:12:02;;;;;;;0.60;0.53;;;1.00;99.90;;;;;;5054903;28;20446;-78
2022/12/19 04:14:30;;;;;;;3.30;0.93;;;1.00;99.90;;;;;;5054778;28;20576;-78
2022/12/19 04:17:06;;;;;;;0.50;0.50;;;1.00;99.90;;;;;;5054455;28;20826;-78
2022/12/19 04:19:37;;;;;;;0.30;0.30;;;1.00;99.90;;;;;;5054787;28;20427;-78
2022/12/19 04:22:08;;;;;;;1.60;1.50;;;1.00;99.90;;;;;;5054674;28;20457;-78
2022/12/19 04:24:37;;;;;;;0.30;0.30;;;1.00;99.90;;;;;;5054347;28;20581;-78
2022/12/19 04:27:06;;;;;;;0.93;0.70;;;0.90;99.90;;;;;;5054470;28;20493;-78
2022/12/19 04:29:35;;;;;;;0.77;0.77;;;0.90;99.90;;;;;;5054535;28;20458;-78
2022/12/19 04:32:04;;;;;;;0.30;0.30;;;0.80;99.90;;;;;;5054456;28;20458;-78
2022/12/19 04:34:31;;;;;;;0.30;0.30;;;0.90;99.90;;;;;;5054164;28;20455;-78
2022/12/19 04:37:03;;;;;;;0.40;0.40;;;0.80;99.90;;;;;;5053961;28;20968;-78
2022/12/19 04:39:30;;;;;;;3.20;0.50;;;0.90;99.90;;;;;;5054413;28;20918;-78
2022/12/19 04:41:56;;;;;;;4.23;1.23;;;0.80;99.90;;;;;;5054290;28;20454;-78
2022/12/19 04:44:23;;;;;;;2.30;0.77;;;0.80;99.90;;;;;;5054174;28;20473;-79
2022/12/19 04:46:50;;;;;;;1.23;0.57;;;0.80;99.90;;;;;;5054102;28;20458;-79
2022/12/19 04:49:17;;;;;;;0.30;0.30;;;0.80;99.90;;;;;;5054169;28;20465;-79
2022/12/19 04:51:43;;;;;;;0.43;0.43;;;0.80;99.90;;;;;;5054111;28;20449;-79
2022/12/19 04:54:12;;;;;;;0.60;0.50;;;0.80;99.90;;;;;;5053813;28;20450;-79
2022/12/19 04:56:38;;;;;;;2.73;1.80;;;0.90;99.90;;;;;;5054309;28;20450;-80
2022/12/19 04:59:05;;;;;;;1.23;0.40;;;0.80;99.90;;;;;;5054159;28;20447;-80
2022/12/19 05:01:32;;;;;;;0.57;0.40;;;0.80;99.90;;;;;;5053937;28;20445;-80
2022/12/19 05:03:59;;;;;;;1.23;0.60;;;0.80;99.90;;;;;;5053883;28;20467;-80
2022/12/19 05:06:25;;;;;;;0.30;0.20;;;0.90;99.90;;;;;;5054155;28;20850;-80
2022/12/19 05:08:52;;;;;;;0.67;0.60;;;0.90;99.90;;;;;;5053756;28;20509;-81
2022/12/19 05:11:20;;;;;;;0.80;0.80;;;0.90;99.90;;;;;;5054099;28;20469;-81
2022/12/19 05:13:48;;;;;;;1.33;0.90;;;0.90;99.90;;;;;;5053653;28;20467;-81
2022/12/19 05:16:15;;;;;;;0.30;0.30;;;0.90;99.90;;;;;;5053681;28;20458;-81
2022/12/19 05:18:42;;;;;;;1.50;0.70;;;1.00;99.90;;;;;;5053875;28;20446;-81
2022/12/19 05:21:09;;;;;;;0.73;0.73;;;1.00;99.90;;;;;;5053713;28;20449;-81
2022/12/19 05:23:37;;;;;;;0.30;0.30;;;1.00;99.90;;;;;;5053132;28;20486;-81
2022/12/19 05:26:05;;;;;;;6.53;1.27;;;0.90;99.90;;;;;;5053846;28;20453;-81
2022/12/19 05:28:34;;;;;;;0.53;0.53;;;0.90;99.90;;;;;;5053426;28;20592;-81
2022/12/19 05:31:05;;;;;;;0.30;0.20;;;0.90;99.90;;;;;;5053453;28;20453;-82
2022/12/19 05:33:33;;;;;;;0.50;0.50;;;1.00;99.90;;;;;;5053342;28;20466;-81
2022/12/19 05:35:59;;;;;;;0.67;0.67;;;1.00;99.90;;;;;;5053430;28;20455;-81
2022/12/19 05:38:26;;;;;;;0.30;0.30;;;1.10;99.90;;;;;;5053367;28;20454;-82
2022/12/19 05:40:53;;;;;;;0.70;0.40;;;1.10;99.90;;;;;;5053382;28;20449;-82
2022/12/19 05:43:20;;;;;;;0.60;0.60;;;1.10;99.90;;;;;;5054076;28;20441;-82
2022/12/19 05:45:48;;;;;;;0.60;0.60;;;1.10;99.90;;;;;;5053296;28;20456;-82
2022/12/19 05:48:15;;;;;;;0.77;0.40;;;1.10;99.90;;;;;;5052685;28;20478;-82
2022/12/19 05:50:47;;;;;;;0.30;0.30;;;1.20;99.90;;;;;;5053270;28;20461;-82
2022/12/19 05:53:14;;;;;;;1.30;1.20;;;1.20;99.90;;;;;;5053182;28;20473;-82
2022/12/19 05:55:41;;;;;;;1.23;1.13;;;1.10;99.90;;;;;;5052950;28;20446;-82
2022/12/19 05:58:07;;;;;;;0.30;0.30;;;1.10;99.90;;;;;;5052898;28;20458;-82
2022/12/19 06:00:34;;;;;;;0.30;0.30;;;1.10;99.90;;;;;;5053188;28;20472;-83
2022/12/19 06:03:02;;;;;;;0.40;0.40;;;1.10;99.90;;;;;;5053101;28;20493;-82
2022/12/19 06:05:29;;;;;;;1.03;1.03;;;1.10;99.90;;;;;;5052835;28;20450;-83
2022/12/19 06:07:56;;;;;;;0.67;0.40;;;1.10;99.90;;;;;;5052667;28;20997;-83
2022/12/19 06:10:23;;;;;;;0.40;0.40;;;1.10;99.90;;;;;;5053072;28;20535;-83
2022/12/19 06:12:50;;;;;;;0.43;0.30;;;1.10;99.90;;;;;;5053116;28;20859;-83
2022/12/19 06:15:17;;;;;;;0.67;0.67;;;1.10;99.90;;;;;;5053006;28;20451;-83
2022/12/19 06:17:43;;;;;;;0.37;0.33;;;1.20;99.90;;;;;;5053574;28;20526;-83
2022/12/19 06:20:12;;;;;;;0.73;0.57;;;1.20;99.90;;;;;;5052910;28;20450;-83
2022/12/19 06:22:39;;;;;;;1.53;1.20;;;1.20;99.90;;;;;;5052537;28;21673;-83
2022/12/19 06:25:06;;;;;;;0.63;0.63;;;1.20;99.90;;;;;;5053147;28;20435;-83
2022/12/19 06:27:33;;;;;;;1.20;1.10;;;1.20;99.90;;;;;;5053111;28;20513;-83
2022/12/19 06:30:00;;;;;;;0.30;0.30;;;1.20;99.90;;;;;;5052726;28;20959;-83
2022/12/19 06:32:27;;;;;;;0.40;0.40;;;1.30;99.90;;;;;;5052833;28;20450;-83
2022/12/19 06:34:54;;;;;;;0.40;0.40;;;1.20;99.90;;;;;;5052805;28;20438;-83
2022/12/19 06:37:22;;;;;;;0.30;0.30;;;1.20;99.90;;;;;;5052822;28;20457;-83
2022/12/19 06:39:50;;;;;;;0.40;0.40;;;1.20;99.90;;;;;;5053501;28;20454;-83
2022/12/19 06:42:22;;;;;;;7.37;0.73;;;1.30;99.90;;;;;;5052756;28;20805;-84
2022/12/19 06:44:49;;;;;;;0.50;0.50;;;1.30;99.90;;;;;;5052878;28;20415;-84
2022/12/19 06:47:16;;;;;;;0.60;0.60;;;1.40;99.90;;;;;;5052622;28;20961;-83
2022/12/19 06:49:43;;;;;;;0.30;0.30;;;1.50;99.90;;;;;;5052494;28;20860;-84
2022/12/19 06:52:09;;;;;;;1.27;0.80;;;1.40;99.90;;;;;;5052524;28;20488;-83
2022/12/19 06:54:37;;;;;;;1.47;1.47;;;1.50;99.90;;;;;;5052560;28;20476;-83
2022/12/19 06:57:04;;;;;;;4.23;0.97;;;1.40;99.90;;;;;;5052820;28;20491;-83
2022/12/19 06:59:31;;;;;;;2.53;1.10;;;1.30;99.90;;;;;;5052432;28;20449;-83
2022/12/19 07:02:01;;;;;;;1.27;0.60;;;1.30;99.90;;;;;;5055198;28;20434;-83
2022/12/19 07:04:31;;;;;;;0.40;0.40;;;1.40;99.90;;;;;;5056339;28;20821;-83
2022/12/19 07:06:58;;;;;;;0.60;0.60;;;1.40;99.90;;;;;;5056127;28;20446;-83
2022/12/19 07:09:26;;;;;;;0.57;0.57;;;1.30;99.90;;;;;;5056016;28;20568;-82
2022/12/19 07:11:55;;;;;;;0.30;0.30;;;1.40;99.90;;;;;;5055718;28;20454;-82
2022/12/19 07:14:21;;;;;;;0.80;0.60;;;1.30;99.90;;;;;;5055802;28;20470;-82
2022/12/19 07:16:50;;;;;;;1.63;0.83;;;1.40;99.90;;;;;;5055619;28;20450;-82
2022/12/19 07:19:17;;;;;;;0.30;0.30;;;1.40;99.90;;;;;;5055587;28;20946;-82
2022/12/19 07:21:44;;;;;;;0.50;0.50;;;1.40;99.90;;;;;;5055887;28;20450;-81
2022/12/19 07:24:13;;;;;;;1.03;0.90;;;1.40;99.90;;;;;;5055254;28;21011;-81
2022/12/19 07:26:41;;;;;;;0.30;0.30;;;1.40;99.90;;;;;;5056199;28;20497;-80
2022/12/19 07:29:10;;;;;;;0.63;0.60;;;1.40;99.90;;;;;;5055371;28;20484;-81
2022/12/19 07:31:37;;;;;;;0.40;0.30;;;1.40;99.90;;;;;;5055323;28;20930;-81
2022/12/19 07:34:03;;;;;;;0.70;0.70;;;1.50;99.90;;;;;;5055710;28;20474;-81
2022/12/19 07:36:30;;;;;;;0.43;0.43;;;1.50;99.90;;;;;;5055502;28;20460;-81
2022/12/19 07:38:57;;;;;;;2.93;0.40;;;1.50;99.90;;;;;;5055480;28;20445;-80
2022/12/19 07:41:24;;;;;;;2.27;0.77;;;1.50;99.90;;;;;;5055168;28;20954;-80
2022/12/19 07:43:51;;;;;;;0.80;0.80;;;1.60;99.90;;;;;;5055489;28;20478;-80
2022/12/19 07:46:19;;;;;;;0.87;0.77;;;1.60;99.90;;;;;;5055329;28;20450;-80
2022/12/19 07:48:46;;;;;;;1.13;0.63;;;1.60;99.90;;;;;;5055194;28;20478;-80
2022/12/19 07:51:13;;;;;;;0.90;0.57;;;1.70;99.90;;;;;;5055243;28;20450;-80
2022/12/19 07:53:40;;;;;;;0.80;0.60;;;1.70;99.90;;;;;;5055976;28;20472;-79
2022/12/19 07:56:07;;;;;;;1.20;1.20;;;1.70;99.90;;;;;;5054890;28;20564;-79
2022/12/19 07:58:34;;;;;;;2.20;0.50;;;1.70;99.90;;;;;;5055120;28;20450;-79
2022/12/19 08:01:01;;;;;;;0.40;0.40;;;1.80;99.90;;;;;;5054833;28;20533;-79
2022/12/19 08:03:31;;;;;;;0.50;0.40;;;1.90;99.90;;;;;;5054970;28;20471;-78
2022/12/19 08:06:00;;;;;;;4.40;1.13;;;1.90;99.90;;;;;;5055166;28;20442;-80
2022/12/19 08:08:27;;;;;;;0.40;0.30;;;1.90;99.90;;;;;;5054835;28;20482;-79
2022/12/19 08:10:54;;;;;;;1.07;1.00;;;2.00;99.90;;;;;;5054517;28;20462;-80
2022/12/19 08:13:20;;;;;;;2.87;0.70;;;2.00;99.90;;;;;;5054147;28;20840;-80
2022/12/19 08:15:47;;;;;;;0.40;0.30;;;2.10;99.90;;;;;;5054790;28;20457;-80
2022/12/19 08:18:14;;;;;;;0.93;0.77;;;2.00;99.90;;;;;;5054482;28;20525;-79
2022/12/19 08:20:46;;;;;;;0.50;0.50;;;2.00;99.90;;;;;;5054452;28;20820;-80
2022/12/19 08:23:13;;;;;;;0.30;0.30;;;2.10;99.90;;;;;;5054531;28;20501;-80
2022/12/19 08:25:39;;;;;;;1.23;0.90;;;2.10;99.90;;;;;;5054638;28;20499;-79
2022/12/19 08:28:06;;;;;;;0.50;0.50;;;2.20;99.90;;;;;;5055323;28;20466;-79
2022/12/19 08:30:33;;;;;;;13.63;0.77;;;2.30;99.90;;;;;;5054557;28;20454;-79
2022/12/19 08:33:00;;;;;;;2.20;1.50;;;2.30;99.90;;;;;;5054437;28;20474;-79
2022/12/19 08:35:27;;;;;;;1.07;1.07;;;2.30;99.90;;;;;;5054328;28;20925;-79
2022/12/19 08:37:55;;;;;;;0.60;0.60;;;2.40;99.90;;;;;;5054436;28;20465;-78
2022/12/19 08:40:23;;;;;;;0.40;0.40;;;2.40;99.90;;;;;;5054104;28;20471;-78
2022/12/19 08:42:50;;;;;;;3.80;0.93;;;2.40;99.90;;;;;;5054243;28;20466;-78
2022/12/19 08:45:17;;;;;;;1.07;0.80;;;2.50;99.90;;;;;;5053901;28;20869;-78
2022/12/19 08:47:44;;;;;;;3.13;0.50;;;2.60;99.90;;;;;;5054219;28;20455;-81
2022/12/19 08:50:12;;;;;;;0.30;0.30;;;2.70;99.90;;;;;;5054139;28;20505;-78
2022/12/19 08:52:39;;;;;;;1.33;1.20;;;2.70;99.90;;;;;;5054025;28;20450;-77
2022/12/19 08:55:09;;;;;;;0.50;0.50;;;2.70;99.90;;;;;;5054099;28;20449;-78
2022/12/19 08:57:36;;;;;;;0.30;0.27;;;2.80;99.90;;;;;;5054359;28;20865;-77
2022/12/19 09:00:04;;;;;;;0.57;0.57;;;2.80;99.90;;;;;;5054972;28;20909;-77
2022/12/19 09:02:31;;;;;;;0.90;0.67;;;2.90;99.90;;;;;;5073548;28;20450;-77
2022/12/19 09:04:58;;;;;;;0.70;0.70;;;3.00;99.90;;;;;;5073827;28;20446;-77
2022/12/19 09:07:25;;;;;;;0.50;0.50;;;3.00;99.90;;;;;;5073497;28;20951;-77
2022/12/19 09:09:52;;;;;;;0.40;0.30;;;3.10;99.90;;;;;;5073394;28;20477;-78
2022/12/19 09:12:20;;;;;;;1.03;0.60;;;3.20;99.90;;;;;;5073646;28;20457;-77
2022/12/19 09:14:47;;;;;;;0.30;0.30;;;3.30;99.90;;;;;;5073285;28;20484;-77
2022/12/19 09:17:14;;;;;;;0.30;0.30;;;3.40;99.90;;;;;;5073385;28;20456;-77
2022/12/19 09:19:41;;;;;;;0.60;0.60;;;3.50;99.90;;;;;;5073702;28;20543;-77
2022/12/19 09:22:08;;;;;;;0.40;0.40;;;3.60;99.90;;;;;;5073608;28;20489;-77
2022/12/19 09:24:35;;;;;;;0.50;0.50;;;3.60;99.90;;;;;;5072609;28;20844;-77
2022/12/19 09:27:02;;;;;;;1.80;0.50;;;3.70;99.90;;;;;;5073560;28;20453;-78
2022/12/19 09:29:30;;;;;;;0.40;0.30;;;3.70;99.90;;;;;;5073449;28;20473;-77
2022/12/19 09:31:57;;;;;;;0.30;0.30;;;3.80;99.90;;;;;;5073529;28;20449;-77
2022/12/19 09:34:26;;;;;;;0.50;0.50;;;4.00;99.90;;;;;;5073407;28;20461;-77
2022/12/19 09:36:52;;;;;;;0.53;0.53;;;4.00;99.90;;;;;;5073364;28;20460;-77
2022/12/19 09:39:19;;;;;;;1.53;0.90;;;4.00;99.90;;;;;;5073464;28;20449;-77
2022/12/19 09:42:05;;;;;;;0.87;0.87;;;4.10;99.90;;;;;;5073151;28;20441;-77
2022/12/19 09:44:48;;;;;;;1.40;0.47;;;4.20;99.90;;;;;;5073630;28;20465;-77
2022/12/19 09:47:18;;;;;;;1.50;0.90;;;4.20;99.90;;;;;;5073457;28;20430;-77
2022/12/19 09:49:47;;;;;;;1.23;1.23;;;4.30;99.90;;;;;;5073000;28;21003;-77
2022/12/19 09:52:17;;;;;;;0.43;0.43;;;4.30;99.90;;;;;;5073458;28;20450;-77
2022/12/19 09:54:49;;;;;;;0.50;0.50;;;4.30;99.90;;;;;;5073205;28;20480;-77
2022/12/19 09:57:20;;;;;;;1.03;0.77;;;4.30;99.90;;;;;;5073309;28;20433;-77
2022/12/19 09:59:54;;;;;;;1.07;1.07;;;4.30;99.90;;;;;;5073274;28;20433;-77
2022/12/19 10:02:30;;;;;;;0.40;0.40;;;4.30;99.90;;;;;;5073264;28;20437;-77
2022/12/19 10:05:03;;;;;;;0.50;0.50;;;4.30;99.90;;;;;;5073827;28;20552;-77
2022/12/19 10:07:30;;;;;;;2.20;0.60;;;4.30;99.90;;;;;;5072931;28;20433;-76
2022/12/19 10:09:57;;;;;;;0.93;0.60;;;4.40;99.90;;;;;;5073299;28;20481;-77
2022/12/19 10:12:40;;;;;;;0.40;0.40;;;4.40;99.90;;;;;;5073118;28;20442;-77
2022/12/19 10:15:15;;;;;;;0.40;0.40;;;4.50;99.90;;;;;;5073101;28;20439;-76
2022/12/19 10:18:01;;;;;;;0.93;0.53;;;4.50;99.90;;;;;;5073396;28;20425;-76
2022/12/19 10:20:32;;;;;;;0.30;0.30;;;4.70;99.90;;;;;;5073066;28;20434;-76
2022/12/19 10:23:13;;;;;;;0.63;0.50;;;4.60;99.90;;;;;;5072672;28;20502;-76
2022/12/19 10:25:52;;;;;;;10.50;0.83;;;4.70;99.90;;;;;;5073050;28;20421;-76
2022/12/19 10:28:44;;;;;;;0.47;0.40;;;4.70;99.90;;;;;;5072971;28;20468;-76
2022/12/19 10:31:18;;;;;;;5.43;0.83;;;4.80;99.90;;;;;;5072978;28;20430;-76
2022/12/19 10:33:49;;;;;;;4.13;0.77;;;4.80;99.90;;;;;;5073081;28;20473;-76
2022/12/19 10:36:16;;;;;;;3.90;0.57;;;4.90;99.90;;;;;;5076208;28;20425;-76
2022/12/19 10:38:50;;;;;;;0.37;0.37;;;4.90;99.90;;;;;;5076686;28;20445;-76
2022/12/19 10:41:21;;;;;;;0.70;0.60;;;4.80;99.90;;;;;;5076347;28;20792;-76
2022/12/19 10:43:56;;;;;;;0.30;0.30;;;4.90;99.90;;;;;;5076558;28;20461;-76
2022/12/19 10:46:33;;;;;;;8.93;0.80;;;4.90;99.90;;;;;;5076597;28;20427;-76
2022/12/19 10:49:01;;;;;;;1.63;0.40;;;4.90;99.90;;;;;;5076475;28;20468;-76
2022/12/19 10:51:31;;;;;;;1.80;0.53;;;4.90;99.90;;;;;;5076058;28;20960;-76
2022/12/19 10:54:00;;;;;;;0.30;0.30;;;5.00;99.90;;;;;;5076058;28;20461;-76
2022/12/19 10:56:29;;;;;;;2.10;0.90;;;5.00;99.90;;;;;;5076316;28;20453;-76
2022/12/19 10:58:57;;;;;;;0.50;0.30;;;5.00;99.90;;;;;;5076236;28;20449;-76
2022/12/19 11:01:28;;;;;;;0.60;0.60;;;5.10;99.90;;;;;;5076251;28;20503;-76
2022/12/19 11:04:14;;;;;;;5.43;0.80;;;5.10;99.90;;;;;;5076184;28;20476;-76
2022/12/19 11:06:47;;;;;;;1.73;0.60;;;5.10;99.90;;;;;;5076176;28;20438;-76
2022/12/19 11:09:28;;;;;;;2.77;0.40;;;5.10;99.90;;;;;;5076019;28;20485;-76
2022/12/19 11:12:11;;;;;;;1.30;1.20;;;5.10;99.90;;;;;;5076107;28;20462;-76
2022/12/19 11:14:40;;;;;;;0.40;0.40;;;5.20;99.90;;;;;;5075581;28;20842;-76
2022/12/19 11:17:25;;;;;;;6.73;0.80;;;5.20;99.90;;;;;;5075656;28;20925;-76
2022/12/19 11:19:52;;;;;;;2.00;0.50;;;5.20;99.90;;;;;;5075960;28;20492;-77
2022/12/19 11:22:22;;;;;;;0.60;0.60;;;5.40;99.90;;;;;;5075720;28;20449;-77
2022/12/19 11:24:52;;;;;;;0.40;0.40;;;5.40;99.90;;;;;;5075748;28;20461;-77
2022/12/19 11:27:37;;;;;;;0.40;0.33;;;5.50;99.90;;;;;;5075778;28;20442;-77
2022/12/19 11:30:08;;;;;;;0.60;0.60;;;5.50;99.90;;;;;;5075677;28;20465;-76
2022/12/19 11:32:38;;;;;;;0.70;0.40;;;5.50;99.90;;;;;;5075682;28;20444;-77
2022/12/19 11:35:16;;;;;;;1.47;1.47;;;5.60;99.90;;;;;;5075833;28;20433;-77
2022/12/19 11:37:49;;;;;;;0.60;0.50;;;5.60;99.90;;;;;;5075595;28;20432;-77
2022/12/19 11:40:24;;;;;;;1.23;0.80;;;5.70;99.90;;;;;;5075599;28;20437;-77
2022/12/19 11:42:54;;;;;;;0.73;0.70;;;5.70;99.90;;;;;;5075447;28;20468;-77
2022/12/19 11:45:29;;;;;;;1.87;0.60;;;5.70;99.90;;;;;;5075684;28;20492;-77
2022/12/19 11:48:03;;;;;;;0.77;0.77;;;5.80;99.90;;;;;;5074623;28;20425;-77
2022/12/19 11:50:34;;;;;;;1.27;0.60;;;5.80;99.90;;;;;;5074986;28;20974;-77
2022/12/19 11:53:08;;;;;;;1.23;0.50;;;5.90;99.90;;;;;;5075485;28;20461;-77
2022/12/19 11:55:42;;;;;;;3.80;1.57;;;5.90;99.90;;;;;;5075279;28;20432;-77
2022/12/19 11:58:11;;;;;;;1.53;0.80;;;5.90;99.90;;;;;;5074996;28;20430;-77
2022/12/19 12:00:45;;;;;;;6.10;1.70;;;6.00;99.90;;;;;;5075152;28;20449;-77
2022/12/19 12:03:57;;;;;;;3.53;1.47;;;6.10;99.90;;;;;;5074781;28;20830;-77
2022/12/19 12:06:31;;;;;;;0.70;0.70;;;5.90;99.90;;;;;;5075038;28;20455;-77
2022/12/19 12:09:11;;;;;;;0.30;0.30;;;5.90;99.90;;;;;;5075043;28;20430;-77
2022/12/19 12:11:44;;;;;;;1.70;0.93;;;5.90;99.90;;;;;;5074693;28;20791;-77
2022/12/19 12:14:18;;;;;;;4.83;0.90;;;5.90;99.90;;;;;;5074881;28;20492;-77
2022/12/19 12:17:08;;;;;;;1.30;1.20;;;6.00;99.90;;;;;;5074843;28;20429;-77
2022/12/19 12:19:53;;;;;;;0.83;0.80;;;6.10;99.90;;;;;;5073183;28;20445;-77
2022/12/19 12:22:36;;;;;;;0.50;0.50;;;6.10;99.90;;;;;;5074703;28;20433;-76
2022/12/19 12:25:19;;;;;;;0.73;0.60;;;6.10;99.90;;;;;;5074668;28;20421;-77
2022/12/19 12:27:57;;;;;;;5.73;1.87;;;6.20;99.90;;;;;;5074788;28;20422;-77
2022/12/19 12:30:24;;;;;;;0.40;0.40;;;6.10;99.90;;;;;;5074391;28;20476;-77
2022/12/19 12:33:04;;;;;;;0.93;0.40;;;6.10;99.90;;;;;;5074117;28;20980;-77
2022/12/19 12:35:38;;;;;;;0.80;0.40;;;6.10;99.90;;;;;;5074660;28;20430;-77
2022/12/19 12:38:20;;;;;;;14.37;1.40;;;6.20;99.90;;;;;;5074479;28;20437;-77
2022/12/19 12:41:14;;;;;;;5.70;1.37;;;6.10;99.90;;;;;;5074914;28;20442;-77
2022/12/19 12:43:54;;;;;;;0.50;0.43;;;6.10;99.90;;;;;;5073901;28;20472;-77
2022/12/19 12:46:25;;;;;;;0.80;0.80;;;6.10;99.90;;;;;;5074268;28;20425;-76
2022/12/19 12:48:57;;;;;;;4.93;0.70;;;6.00;99.90;;;;;;5074449;28;20928;-76
2022/12/19 12:51:26;;;;;;;2.30;1.30;;;6.10;99.90;;;;;;5074079;28;20469;-76
2022/12/19 12:53:59;;;;;;;2.00;1.23;;;6.10;99.90;;;;;;5074061;28;20473;-76
2022/12/19 12:56:27;;;;;;;2.07;0.80;;;6.10;99.90;;;;;;5074930;28;20437;-76
2022/12/19 12:59:20;;;;;;;0.60;0.60;;;6.10;99.90;;;;;;5073972;28;20456;-76
2022/12/19 13:01:52;;;;;;;1.47;0.90;;;6.10;99.90;;;;;;5074001;28;20460;-76
2022/12/19 13:04:24;;;;;;;2.80;0.93;;;6.10;99.90;;;;;;5073529;28;20564;-76
2022/12/19 13:07:28;;;;;;;0.30;0.30;;;6.20;99.90;;;;;;5073594;28;20853;-76
2022/12/19 13:10:17;;;;;;;1.43;0.50;;;6.30;99.90;;;;;;5073809;28;20809;-76
2022/12/19 13:13:01;;;;;;;3.27;1.27;;;6.30;99.90;;;;;;5073772;28;20433;-76
2022/12/19 13:15:40;;;;;;;1.10;0.93;;;6.20;99.90;;;;;;5073438;28;20445;-76
2022/12/19 13:18:29;;;;;;;5.70;0.53;;;6.20;99.90;;;;;;5073602;28;20453;-76